createdAt,value
2023-02-16T00:01:13.740Z,-1.84
2023-02-16T00:04:21.058Z,-1.87
2023-02-16T00:07:23.721Z,-1.83
2023-02-16T00:10:30.239Z,-1.88
2023-02-16T00:13:45.236Z,-1.87
2023-02-16T00:16:48.630Z,-1.90
2023-02-16T00:19:51.308Z,-1.97
2023-02-16T00:22:54.133Z,-1.97
2023-02-16T00:25:56.738Z,-1.99
2023-02-16T00:28:59.827Z,-2.03
2023-02-16T00:32:05.183Z,-2.07
2023-02-16T00:35:15.120Z,-2.09
2023-02-16T00:38:18.216Z,-2.16
2023-02-16T00:41:43.277Z,-2.20
2023-02-16T00:44:49.115Z,-2.16
2023-02-16T00:47:53.074Z,-2.12
2023-02-16T00:50:55.705Z,-2.11
2023-02-16T00:53:58.580Z,-2.12
2023-02-16T00:57:01.205Z,-2.15
2023-02-16T01:00:15.658Z,-2.20
2023-02-16T01:03:26.654Z,-2.21
2023-02-16T01:06:48.509Z,-2.22
2023-02-16T01:10:09.592Z,-2.09
2023-02-16T01:13:12.867Z,-2.04
2023-02-16T01:16:26.084Z,-2.02
2023-02-16T01:19:32.922Z,-2.02
2023-02-16T01:22:35.508Z,-1.91
2023-02-16T01:25:39.612Z,-1.86
2023-02-16T01:28:43.152Z,-1.98
2023-02-16T01:31:46.960Z,-2.08
2023-02-16T01:34:49.570Z,-2.15
2023-02-16T01:37:52.559Z,-2.19
2023-02-16T01:40:57.887Z,-2.25
2023-02-16T01:44:36.247Z,-2.28
2023-02-16T01:47:49.537Z,-2.31
2023-02-16T01:51:10.697Z,-2.31
2023-02-16T01:54:20.025Z,-2.33
2023-02-16T01:57:33.799Z,-2.35
2023-02-16T02:00:51.523Z,-2.35
2023-02-16T02:04:13.058Z,-2.39
2023-02-16T02:07:25.388Z,-2.36
2023-02-16T02:10:46.832Z,-2.39
2023-02-16T02:13:53.483Z,-2.41
2023-02-16T02:17:05.971Z,-2.47
2023-02-16T02:20:50.543Z,-2.48
2023-02-16T02:24:07.002Z,-2.50
2023-02-16T02:27:31.275Z,-2.51
2023-02-16T02:31:21.619Z,-2.53
2023-02-16T02:34:40.163Z,-2.55
2023-02-16T02:37:47.169Z,-2.57
2023-02-16T02:40:58.818Z,-2.65
2023-02-16T02:44:06.604Z,-2.73
2023-02-16T02:47:09.331Z,-2.77
2023-02-16T02:50:36.939Z,-2.83
2023-02-16T02:53:47.423Z,-2.85
2023-02-16T02:57:35.981Z,-2.79
2023-02-16T03:00:44.838Z,-2.75
2023-02-16T03:03:52.634Z,-2.70
2023-02-16T03:06:58.873Z,-2.71
2023-02-16T03:10:21.773Z,-2.71
2023-02-16T03:13:30.258Z,-2.67
2023-02-16T03:16:44.601Z,-2.68
2023-02-16T03:20:09.920Z,-2.76
2023-02-16T03:23:32.068Z,-2.77
2023-02-16T03:26:55.469Z,-2.79
2023-02-16T03:30:01.404Z,-2.82
2023-02-16T03:33:06.549Z,-2.84
2023-02-16T03:36:09.736Z,-2.83
2023-02-16T03:39:13.285Z,-2.82
2023-02-16T03:42:16.415Z,-2.83
2023-02-16T03:45:20.368Z,-2.88
2023-02-16T03:48:23.421Z,-2.82
2023-02-16T03:51:26.046Z,-2.91
2023-02-16T03:54:29.021Z,-2.92
2023-02-16T03:57:31.658Z,-2.93
2023-02-16T04:00:36.044Z,-2.96
2023-02-16T04:03:39.003Z,-2.99
2023-02-16T04:06:41.707Z,-3.02
2023-02-16T04:09:44.870Z,-3.04
2023-02-16T04:12:48.036Z,-3.05
2023-02-16T04:15:50.834Z,-3.08
2023-02-16T04:18:53.411Z,-3.07
2023-02-16T04:22:14.998Z,-3.08
2023-02-16T04:25:18.747Z,-3.09
2023-02-16T04:28:21.554Z,-3.08
2023-02-16T04:31:24.492Z,-3.05
2023-02-16T04:34:27.542Z,-2.99
2023-02-16T04:37:30.915Z,-3.00
2023-02-16T04:40:33.942Z,-3.00
2023-02-16T04:43:36.622Z,-3.04
2023-02-16T04:46:39.514Z,-3.11
2023-02-16T04:49:42.171Z,-3.14
2023-02-16T04:52:45.091Z,-3.14
2023-02-16T04:55:49.515Z,-3.16
2023-02-16T04:58:52.632Z,-3.17
2023-02-16T05:01:55.367Z,-3.18
2023-02-16T05:04:58.177Z,-3.21
2023-02-16T05:08:02.086Z,-3.14
2023-02-16T05:11:23.753Z,-3.05
2023-02-16T05:14:47.115Z,-3.04
2023-02-16T05:17:50.722Z,-3.07
2023-02-16T05:21:12.022Z,-3.18
2023-02-16T05:24:15.846Z,-3.26
2023-02-16T05:27:26.779Z,-3.28
2023-02-16T05:30:29.849Z,-3.35
2023-02-16T05:33:32.478Z,-3.35
2023-02-16T05:36:35.392Z,-3.32
2023-02-16T05:39:38.285Z,-3.31
2023-02-16T05:42:41.158Z,-3.28
2023-02-16T05:45:43.776Z,-3.25
2023-02-16T05:48:46.706Z,-3.27
2023-02-16T05:51:49.665Z,-3.32
2023-02-16T05:54:52.513Z,-3.37
2023-02-16T05:57:55.092Z,-3.30
2023-02-16T06:00:58.461Z,-3.31
2023-02-16T06:04:01.902Z,-3.28
2023-02-16T06:07:04.532Z,-3.24
2023-02-16T06:10:08.185Z,-3.13
2023-02-16T06:13:12.537Z,-3.10
2023-02-16T06:16:15.402Z,-3.06
2023-02-16T06:19:19.489Z,-3.09
2023-02-16T06:22:22.498Z,-3.03
2023-02-16T06:25:25.298Z,-2.91
2023-02-16T06:28:28.193Z,-2.78
2023-02-16T06:31:31.305Z,-2.55
2023-02-16T06:34:34.266Z,-2.46
2023-02-16T06:37:36.890Z,-2.39
2023-02-16T06:40:40.059Z,-2.33
2023-02-16T06:43:42.746Z,-2.29
2023-02-16T06:46:47.758Z,-2.22
2023-02-16T06:49:50.426Z,-2.21
2023-02-16T06:52:53.339Z,-2.18
2023-02-16T06:55:56.164Z,-2.25
2023-02-16T06:58:59.279Z,-2.21
2023-02-16T07:02:01.904Z,-2.22
2023-02-16T07:05:05.779Z,-2.11
2023-02-16T07:08:08.490Z,-2.06
2023-02-16T07:11:12.012Z,-2.04
2023-02-16T07:14:15.961Z,-1.94
2023-02-16T07:17:18.879Z,-1.81
2023-02-16T07:20:21.562Z,-1.66
2023-02-16T07:23:25.032Z,-1.62
2023-02-16T07:26:28.098Z,-1.47
2023-02-16T07:29:31.326Z,-1.40
2023-02-16T07:32:34.506Z,-1.27
2023-02-16T07:35:38.288Z,-1.15
2023-02-16T07:38:42.069Z,-1.01
2023-02-16T07:41:45.248Z,-1.02
2023-02-16T07:44:56.187Z,-0.97
2023-02-16T07:47:59.772Z,-0.85
2023-02-16T07:51:03.034Z,-0.83
2023-02-16T07:54:06.556Z,-0.70
2023-02-16T07:57:09.789Z,-0.64
2023-02-16T08:00:13.177Z,-0.57
2023-02-16T08:03:16.118Z,-0.45
2023-02-16T08:06:19.243Z,-0.31
2023-02-16T08:09:22.712Z,-0.33
2023-02-16T08:12:25.950Z,-0.16
2023-02-16T08:15:28.797Z,-0.01
2023-02-16T08:18:31.370Z,0.11
2023-02-16T08:21:34.695Z,0.15
2023-02-16T08:24:37.467Z,0.18
2023-02-16T08:27:40.320Z,0.40
2023-02-16T08:30:43.012Z,0.45
2023-02-16T08:33:47.969Z,0.56
2023-02-16T08:36:57.609Z,0.72
2023-02-16T08:40:00.929Z,0.85
2023-02-16T08:43:03.784Z,1.06
2023-02-16T08:46:08.355Z,1.16
2023-02-16T08:49:12.127Z,1.36
2023-02-16T08:52:15.174Z,1.51
2023-02-16T08:55:18.227Z,1.63
2023-02-16T08:58:24.753Z,1.84
2023-02-16T09:01:28.087Z,1.90
2023-02-16T09:04:31.098Z,2.11
2023-02-16T09:07:35.133Z,2.28
2023-02-16T09:10:38.119Z,2.30
2023-02-16T09:13:41.148Z,2.41
2023-02-16T09:16:47.150Z,2.56
2023-02-16T09:19:49.966Z,2.56
2023-02-16T09:22:54.126Z,2.78
2023-02-16T09:26:00.155Z,2.86
2023-02-16T09:29:03.642Z,3.13
2023-02-16T09:32:06.713Z,3.27
2023-02-16T09:35:09.545Z,3.37
2023-02-16T09:38:12.178Z,3.68
2023-02-16T09:41:36.593Z,3.82
2023-02-16T09:44:58.604Z,3.83
2023-02-16T09:48:02.280Z,4.08
2023-02-16T09:51:07.124Z,4.30
2023-02-16T09:54:31.119Z,4.23
2023-02-16T09:57:59.982Z,4.50
2023-02-16T10:01:47.928Z,4.75
2023-02-16T10:05:13.063Z,4.85
2023-02-16T10:08:30.099Z,4.91
2023-02-16T10:11:56.349Z,5.19
2023-02-16T10:15:20.596Z,5.51
2023-02-16T10:18:30.048Z,5.71
2023-02-16T10:21:32.891Z,5.74
2023-02-16T10:25:03.184Z,5.82
2023-02-16T10:28:16.730Z,5.94
2023-02-16T10:31:44.476Z,5.94
2023-02-16T10:34:47.083Z,6.26
2023-02-16T10:38:02.917Z,6.25
2023-02-16T10:41:31.540Z,6.40
2023-02-16T10:44:45.983Z,6.29
2023-02-16T10:47:48.771Z,6.36
2023-02-16T10:50:58.724Z,6.44
2023-02-16T10:54:05.876Z,6.70
2023-02-16T10:57:25.692Z,6.83
2023-02-16T11:00:46.438Z,7.10
2023-02-16T11:03:52.027Z,7.18
2023-02-16T11:07:25.117Z,7.34
2023-02-16T11:10:55.683Z,7.51
2023-02-16T11:14:02.581Z,7.76
2023-02-16T11:17:13.532Z,8.01
2023-02-16T11:20:33.993Z,7.86
2023-02-16T11:23:40.716Z,8.03
2023-02-16T11:26:46.306Z,8.19
2023-02-16T11:29:50.809Z,8.06
2023-02-16T11:32:53.419Z,8.06
2023-02-16T11:35:56.690Z,8.15
2023-02-16T11:39:14.935Z,8.27
2023-02-16T11:42:40.805Z,8.17
2023-02-16T11:45:43.476Z,8.33
2023-02-16T11:48:47.310Z,8.46
2023-02-16T11:51:49.896Z,8.50
2023-02-16T11:54:55.903Z,8.58
2023-02-16T11:58:13.312Z,8.56
2023-02-16T12:01:34.741Z,8.61
2023-02-16T12:04:54.214Z,8.47
2023-02-16T12:08:09.315Z,8.58
2023-02-16T12:11:38.201Z,8.73
2023-02-16T12:14:51.659Z,8.78
2023-02-16T12:18:24.674Z,9.05
2023-02-16T12:21:45.467Z,9.13
2023-02-16T12:24:57.613Z,9.22
2023-02-16T12:28:34.182Z,9.22
2023-02-16T12:31:40.086Z,9.37
2023-02-16T12:35:07.280Z,9.63
2023-02-16T12:38:28.701Z,10.24
2023-02-16T12:41:43.731Z,10.28
2023-02-16T12:44:54.386Z,10.15
2023-02-16T12:48:28.538Z,10.30
2023-02-16T12:51:45.693Z,9.93
2023-02-16T12:55:08.821Z,9.97
2023-02-16T12:58:22.444Z,9.82
2023-02-16T13:01:30.317Z,9.66
2023-02-16T13:05:09.173Z,9.74
2023-02-16T13:08:24.856Z,9.69
2023-02-16T13:11:40.689Z,9.65
2023-02-16T13:14:46.164Z,9.75
2023-02-16T13:17:51.184Z,9.92
2023-02-16T13:21:03.692Z,9.93
2023-02-16T13:24:23.650Z,9.84
2023-02-16T13:27:30.103Z,9.92
2023-02-16T13:30:48.891Z,9.83
2023-02-16T13:34:10.482Z,9.90
2023-02-16T13:37:36.020Z,9.93
2023-02-16T13:40:56.441Z,9.94
2023-02-16T13:44:10.954Z,10.10
2023-02-16T13:47:18.641Z,10.16
2023-02-16T13:50:22.223Z,9.98
2023-02-16T13:53:26.198Z,10.13
2023-02-16T13:56:29.457Z,10.26
2023-02-16T13:59:49.484Z,10.36
2023-02-16T14:02:55.670Z,10.50
2023-02-16T14:06:32.299Z,10.49
2023-02-16T14:09:37.672Z,10.50
2023-02-16T14:12:40.989Z,10.55
2023-02-16T14:15:54.413Z,10.73
2023-02-16T14:19:04.668Z,11.11
2023-02-16T14:22:12.136Z,11.77
2023-02-16T14:25:38.098Z,12.13
2023-02-16T14:28:50.483Z,12.44
2023-02-16T14:32:13.832Z,12.65
2023-02-16T14:35:21.469Z,13.20
2023-02-16T14:38:33.692Z,13.36
2023-02-16T14:41:36.974Z,13.49
2023-02-16T14:45:02.126Z,13.43
2023-02-16T14:48:30.812Z,14.02
2023-02-16T14:52:01.700Z,14.18
2023-02-16T14:55:41.099Z,14.31
2023-02-16T14:58:54.639Z,15.09
2023-02-16T15:01:57.943Z,15.54
2023-02-16T15:05:20.567Z,15.68
2023-02-16T15:08:34.770Z,15.27
2023-02-16T15:12:05.974Z,15.14
2023-02-16T15:15:16.848Z,14.85
2023-02-16T15:18:24.142Z,14.10
2023-02-16T15:21:30.728Z,13.02
2023-02-16T15:24:34.399Z,12.37
2023-02-16T15:27:36.974Z,11.84
2023-02-16T15:30:46.769Z,11.35
2023-02-16T15:33:59.243Z,10.62
2023-02-16T15:37:24.174Z,10.13
2023-02-16T15:40:30.039Z,9.63
2023-02-16T15:43:43.177Z,9.31
2023-02-16T15:46:46.000Z,9.20
2023-02-16T15:49:49.477Z,8.67
2023-02-16T15:52:54.095Z,8.36
2023-02-16T15:55:57.191Z,8.20
2023-02-16T15:59:03.208Z,7.89
2023-02-16T16:02:13.896Z,7.72
2023-02-16T16:05:30.032Z,7.36
2023-02-16T16:08:33.116Z,7.06
2023-02-16T16:11:37.231Z,6.74
2023-02-16T16:15:00.615Z,6.48
2023-02-16T16:18:06.047Z,6.21
2023-02-16T16:21:29.184Z,6.04
2023-02-16T16:24:35.196Z,5.86
2023-02-16T16:27:37.937Z,5.70
2023-02-16T16:30:43.922Z,5.50
2023-02-16T16:33:53.904Z,5.34
2023-02-16T16:36:58.797Z,5.27
2023-02-16T16:40:07.792Z,5.18
2023-02-16T16:43:19.255Z,5.06
2023-02-16T16:46:30.550Z,5.08
2023-02-16T16:49:36.821Z,5.03
2023-02-16T16:52:43.116Z,4.99
2023-02-16T16:55:46.067Z,5.00
2023-02-16T16:58:53.878Z,4.98
2023-02-16T17:01:57.122Z,4.87
2023-02-16T17:04:59.889Z,4.79
2023-02-16T17:08:02.864Z,4.76
2023-02-16T17:11:06.425Z,4.70
2023-02-16T17:14:14.885Z,4.75
2023-02-16T17:17:17.973Z,4.56
2023-02-16T17:20:22.740Z,4.59
2023-02-16T17:23:26.414Z,4.49
2023-02-16T17:26:29.469Z,4.39
2023-02-16T17:29:32.220Z,4.25
2023-02-16T17:32:35.383Z,4.20
2023-02-16T17:35:40.688Z,4.17
2023-02-16T17:38:44.728Z,4.16
2023-02-16T17:41:48.240Z,4.02
2023-02-16T17:44:51.365Z,3.95
2023-02-16T17:47:54.083Z,3.82
2023-02-16T17:50:57.683Z,3.76
2023-02-16T17:54:00.621Z,3.81
2023-02-16T17:57:04.235Z,3.88
2023-02-16T18:00:08.361Z,3.96
2023-02-16T18:03:11.879Z,3.85
2023-02-16T18:06:16.778Z,3.74
2023-02-16T18:09:24.275Z,3.59
2023-02-16T18:12:28.525Z,3.48
2023-02-16T18:15:32.252Z,3.45
2023-02-16T18:18:39.031Z,3.45
2023-02-16T18:21:42.275Z,3.25
2023-02-16T18:24:45.212Z,3.16
2023-02-16T18:27:48.343Z,3.07
2023-02-16T18:30:51.239Z,3.36
2023-02-16T18:33:55.431Z,3.39
2023-02-16T18:36:58.098Z,3.30
2023-02-16T18:40:01.392Z,3.31
2023-02-16T18:43:04.740Z,3.19
2023-02-16T18:46:09.912Z,3.03
2023-02-16T18:49:12.885Z,2.99
2023-02-16T18:52:16.874Z,3.12
2023-02-16T18:55:20.061Z,3.00
2023-02-16T18:58:23.228Z,3.08
2023-02-16T19:01:32.491Z,3.26
2023-02-16T19:04:36.176Z,3.30
2023-02-16T19:07:39.318Z,3.45
2023-02-16T19:10:42.915Z,3.36
2023-02-16T19:13:47.132Z,3.43
2023-02-16T19:16:50.545Z,3.28
2023-02-16T19:19:53.545Z,3.21
2023-02-16T19:22:56.820Z,3.17
2023-02-16T19:26:05.653Z,3.18
2023-02-16T19:29:09.440Z,2.99
2023-02-16T19:32:12.417Z,2.89
2023-02-16T19:35:16.078Z,2.84
2023-02-16T19:38:19.578Z,2.71
2023-02-16T19:41:25.983Z,2.64
2023-02-16T19:44:29.154Z,2.71
2023-02-16T19:47:32.143Z,2.63
2023-02-16T19:50:35.119Z,2.56
2023-02-16T19:53:39.462Z,2.76
2023-02-16T19:56:42.370Z,2.96
2023-02-16T19:59:45.689Z,3.12
2023-02-16T20:02:48.749Z,3.11
2023-02-16T20:05:51.938Z,2.99
2023-02-16T20:08:55.779Z,2.99
2023-02-16T20:11:59.100Z,3.01
2023-02-16T20:15:01.661Z,2.94
2023-02-16T20:18:06.216Z,2.88
2023-02-16T20:21:15.261Z,2.93
2023-02-16T20:24:18.570Z,2.91
2023-02-16T20:27:21.472Z,2.70
2023-02-16T20:30:26.754Z,2.54
2023-02-16T20:33:31.835Z,2.39
2023-02-16T20:36:35.486Z,2.28
2023-02-16T20:39:38.408Z,2.21
2023-02-16T20:42:41.626Z,2.12
2023-02-16T20:45:44.520Z,2.05
2023-02-16T20:48:50.054Z,2.03
2023-02-16T20:51:53.046Z,1.94
2023-02-16T20:54:56.024Z,1.95
2023-02-16T20:58:02.233Z,1.94
2023-02-16T21:01:12.645Z,1.85
2023-02-16T21:04:17.110Z,1.86
2023-02-16T21:07:20.302Z,1.84
2023-02-16T21:10:24.163Z,1.83
2023-02-16T21:13:27.406Z,1.80
2023-02-16T21:16:30.824Z,1.73
2023-02-16T21:19:34.139Z,1.64
2023-02-16T21:22:37.788Z,1.61
2023-02-16T21:25:40.930Z,1.72
2023-02-16T21:28:44.131Z,1.61
2023-02-16T21:31:47.112Z,1.53
2023-02-16T21:34:49.737Z,1.52
2023-02-16T21:37:52.956Z,1.46
2023-02-16T21:41:21.324Z,1.43
2023-02-16T21:44:24.197Z,1.45
2023-02-16T21:47:45.896Z,1.47
2023-02-16T21:50:48.771Z,1.48
2023-02-16T21:53:53.321Z,1.61
2023-02-16T21:56:56.436Z,1.75
2023-02-16T21:59:59.201Z,1.58
2023-02-16T22:03:03.216Z,1.50
2023-02-16T22:06:08.438Z,1.45
2023-02-16T22:09:14.323Z,1.38
2023-02-16T22:12:17.404Z,1.28
2023-02-16T22:15:20.354Z,1.25
2023-02-16T22:18:23.174Z,1.25
2023-02-16T22:21:27.536Z,1.28
2023-02-16T22:24:30.483Z,1.34
2023-02-16T22:27:33.290Z,1.30
2023-02-16T22:30:37.086Z,1.23
2023-02-16T22:33:39.638Z,1.34
2023-02-16T22:36:42.695Z,1.21
2023-02-16T22:39:45.291Z,1.12
2023-02-16T22:42:48.130Z,1.06
2023-02-16T22:45:50.707Z,1.04
2023-02-16T22:48:55.596Z,1.13
2023-02-16T22:51:58.506Z,1.08
2023-02-16T22:55:01.385Z,0.99
2023-02-16T22:58:03.982Z,1.07
2023-02-16T23:01:17.300Z,1.07
2023-02-16T23:04:20.055Z,1.10
2023-02-16T23:07:23.713Z,1.04
2023-02-16T23:10:27.449Z,1.09
2023-02-16T23:13:32.399Z,1.10
2023-02-16T23:16:35.099Z,1.05
2023-02-16T23:19:38.034Z,1.09
2023-02-16T23:22:40.939Z,0.99
2023-02-16T23:25:48.370Z,1.02
2023-02-16T23:28:56.147Z,0.98
2023-02-16T23:31:59.138Z,0.92
2023-02-16T23:35:01.766Z,0.88
2023-02-16T23:38:04.924Z,0.80
2023-02-16T23:41:10.870Z,0.81
2023-02-16T23:44:14.951Z,0.71
2023-02-16T23:47:17.628Z,0.69
2023-02-16T23:50:20.787Z,0.60
2023-02-16T23:53:25.131Z,0.61
2023-02-16T23:56:29.021Z,0.55
2023-02-16T23:59:31.797Z,0.52
